• Join FlightAware (Why Join?)
  • Login
  • US Flag 
06:15AM EDT


 

Airport Tracker/Info


-or-


 

Live Flight TrackerFlight Track Log ✈ EJA141 ✈ 04-Jul-2013 ✈ ESSA / ARN - KSJC

Flight Track Log - Related Links

Times and Time Zones

All times are in EDT time to prevent confusion due to time zone crossing. See the EJA141 flight status page for this flight to view local times or setup timezone preferences in your user account.

Time Position Orientation Groundspeed Altitude Reporting Facility
EDT Latitude Longitude Course Direction KTS MPH feet Rate Location/Type
02:30PM 73.0810 -69.3108 328° Northwest  Level Estimated
02:31PM 73.0274 -69.7148 246° West  Level Estimated
02:32PM 72.9730 -70.1163 245° Southwest  Level Estimated
02:33PM 72.9177 -70.5153 245° Southwest  Level Estimated
02:34PM 72.8618 -70.9118 245° Southwest  Level Estimated
02:35PM 72.8050 -71.3058 244° Southwest  Level Estimated
02:36PM 72.7475 -71.6973 244° Southwest  Level Estimated
02:37PM 72.6893 -72.0862 243° Southwest  Level Estimated
02:38PM 72.6303 -72.4726 243° Southwest  Level Estimated
02:39PM 72.5705 -72.8564 243° Southwest  Level Estimated
02:40PM 72.5101 -73.2377 242° Southwest  Level Estimated
02:41PM 72.4489 -73.6164 242° Southwest  Level Estimated
02:42PM 72.3870 -73.9925 242° Southwest  Level Estimated
02:43PM 72.3243 -74.3661 241° Southwest  Level Estimated
02:44PM 72.2610 -74.7371 241° Southwest  Level Estimated
02:45PM 72.1970 -75.1055 241° Southwest  Level Estimated
02:46PM 72.1323 -75.4714 240° Southwest  Level Estimated
02:47PM 72.0670 -75.8347 240° Southwest  Level Estimated
02:48PM 72.0009 -76.1955 239° Southwest  Level Estimated
02:49PM 71.9342 -76.5536 239° Southwest  Level Estimated
02:50PM 71.8669 -76.9093 239° Southwest  Level Estimated
02:51PM 71.7989 -77.2623 238° Southwest  Level Estimated
02:52PM 71.7302 -77.6128 238° Southwest  Level Estimated
02:53PM 71.6609 -77.9608 238° Southwest  Level Estimated
02:54PM 71.5910 -78.3062 237° Southwest  Level Estimated
02:55PM 71.5205 -78.6491 237° Southwest  Level Estimated
02:56PM 71.4493 -78.9895 237° Southwest  Level Estimated
02:57PM 71.3776 -79.3273 236° Southwest  Level Estimated
02:58PM 71.3053 -79.6626 236° Southwest  Level Estimated
02:59PM 71.2323 -79.9955 236° Southwest  Level Estimated
03:00PM 71.1588 -80.3258 236° Southwest  Level Estimated
03:01PM 71.0847 -80.6536 235° Southwest  Level Estimated
03:02PM 71.0100 -80.9790 235° Southwest  Level Estimated
03:03PM 70.9348 -81.3019 235° Southwest  Level Estimated
03:04PM 70.8590 -81.6224 234° Southwest  Level Estimated
03:05PM 70.7827 -81.9404 234° Southwest  Level Estimated
03:06PM 70.7058 -82.2560 234° Southwest  Level Estimated
03:07PM 70.6284 -82.5691 233° Southwest  Level Estimated
03:08PM 70.5504 -82.8799 233° Southwest  Level Estimated
03:09PM 70.4720 -83.1882 233° Southwest  Level Estimated
03:10PM 70.3930 -83.4942 233° Southwest  Level Estimated
03:11PM 70.3135 -83.7978 232° Southwest  Level Estimated
03:12PM 70.2334 -84.0991 232° Southwest  Level Estimated
03:13PM 70.1529 -84.3980 232° Southwest  Level Estimated
03:14PM 70.0719 -84.6946 231° Southwest  Level Estimated
03:15PM 69.9904 -84.9889 231° Southwest  Level Estimated
03:16PM 69.9084 -85.2809 231° Southwest  Level Estimated
03:17PM 69.8260 -85.5706 231° Southwest  Level Estimated
03:18PM 69.7430 -85.8580 230° Southwest  Level Estimated
03:19PM 69.6596 -86.1432 230° Southwest  Level Estimated
03:20PM 69.5758 -86.4262 230° Southwest  Level Estimated
03:21PM 69.4915 -86.7069 229° Southwest  Level Estimated
03:22PM 69.4067 -86.9854 229° Southwest  Level Estimated
03:23PM 69.3215 -87.2618 229° Southwest  Level Estimated
03:24PM 69.2359 -87.5359 229° Southwest  Level Estimated
03:25PM 69.1499 -87.8079 228° Southwest  Level Estimated
03:26PM 69.0634 -88.0778 228° Southwest  Level Estimated
03:27PM 68.9765 -88.3455 228° Southwest  Level Estimated
03:28PM 68.8891 -88.6111 228° Southwest  Level Estimated
03:29PM 68.8014 -88.8747 227° Southwest  Level Estimated
03:30PM 68.7132 -89.1361 227° Southwest  Level Estimated
03:31PM 68.6247 -89.3955 227° Southwest  Level Estimated
03:32PM 68.5358 -89.6528 227° Southwest  Level Estimated
03:33PM 68.4464 -89.9082 226° Southwest  Level Estimated
03:34PM 68.3567 -90.1615 226° Southwest  Level Estimated
03:35PM 68.2666 -90.4128 226° Southwest  Level Estimated
03:36PM 68.1762 -90.6621 226° Southwest  Level Estimated
03:37PM 68.0853 -90.9095 226° Southwest  Level Estimated
03:38PM 67.9941 -91.1549 225° Southwest  Level Estimated
03:39PM 67.9025 -91.3984 225° Southwest  Level Estimated
03:40PM 67.8106 -91.6400 225° Southwest  Level Estimated
03:41PM 67.7183 -91.8797 225° Southwest  Level Estimated
03:42PM 67.6257 -92.1175 224° Southwest  Level Estimated
03:43PM 67.5327 -92.3534 224° Southwest  Level Estimated
03:44PM 67.4394 -92.5875 224° Southwest  Level Estimated
03:45PM 67.3458 -92.8197 224° Southwest  Level Estimated
03:46PM 67.2518 -93.0502 224° Southwest  Level Estimated
03:47PM 67.1575 -93.2788 223° Southwest  Level Estimated
03:48PM 67.0628 -93.5057 223° Southwest  Level Estimated
03:49PM 66.9679 -93.7308 223° Southwest  Level Estimated
03:50PM 66.8726 -93.9541 223° Southwest  Level Estimated
03:51PM 66.7770 -94.1757 222° Southwest  Level Estimated
03:52PM 66.6811 -94.3956 222° Southwest  Level Estimated
03:53PM 66.5849 -94.6138 222° Southwest  Level Estimated
03:54PM 66.4884 -94.8303 222° Southwest  Level Estimated
03:55PM 66.3916 -95.0451 222° Southwest  Level Estimated
03:56PM 66.2945 -95.2583 221° Southwest  Level Estimated
03:57PM 66.1972 -95.4698 221° Southwest  Level Estimated
03:58PM 66.0995 -95.6797 221° Southwest  Level Estimated
03:59PM 66.0016 -95.8880 221° Southwest  Level Estimated
04:00PM 65.9033 -96.0947 221° Southwest  Level Estimated
04:01PM 65.8048 -96.2998 221° Southwest  Level Estimated
04:02PM 65.7061 -96.5034 220° Southwest  Level Estimated
04:03PM 65.6070 -96.7054 220° Southwest  Level Estimated
04:04PM 65.5077 -96.9058 220° Southwest  Level Estimated
04:05PM 65.4081 -97.1048 220° Southwest  Level Estimated
04:06PM 65.3083 -97.3022 220° Southwest  Level Estimated
04:07PM 65.2082 -97.4982 219° Southwest  Level Estimated
04:08PM 65.1079 -97.6926 219° Southwest  Level Estimated
04:08PM 65.8500 -109.0500 218° Southwest 510 587 43,000  Level Edmonton Center
04:09PM 65.0073 -97.8856 219° Southwest  Level Estimated
04:09PM 65.7333 -109.2333 213° Southwest 500 575 43,000  Level Edmonton Center
04:10PM 64.9064 -98.0772 219° Southwest  Level Estimated
04:10PM 65.6167 -109.3833 208° Southwest 500 575 43,000  Level Edmonton Center
04:11PM 64.8054 -98.2673 219° Southwest  Level Estimated
04:11PM 65.4833 -109.5667 210° Southwest 500 575 43,000  Level Edmonton Center
04:12PM 64.7040 -98.4560 219° Southwest  Level Estimated
04:12PM 65.3667 -109.7500 213° Southwest 500 575 43,000  Level Edmonton Center
04:13PM 64.6025 -98.6432 218° Southwest  Level Estimated
04:13PM 65.2333 -109.9333 210° Southwest 500 575 43,000  Level Edmonton Center
04:14PM 65.1167 -110.1000 211° Southwest 500 575 43,000  Level Edmonton Center
04:15PM 65.0167 -110.3000 220° Southwest 500 575 43,000  Level Edmonton Center
04:16PM 64.9000 -110.4667 211° Southwest 490 564 43,000  Level Edmonton Center
04:17PM 64.7833 -110.6500 214° Southwest 500 575 43,000  Level Edmonton Center
04:18PM 64.6667 -110.8500 216° Southwest 500 575 43,000  Level Edmonton Center
04:19PM 64.5500 -111.0333 214° Southwest 500 575 43,000  Level Edmonton Center
04:20PM 64.4167 -111.2000 208° Southwest 500 575 43,000  Level Edmonton Center
04:21PM 64.3024 -111.3470 209° Southwest  Level FlightAware Approximate
04:21PM 64.3167 -111.3667 209° Southwest 490 564 43,000  Level Edmonton Center
04:22PM 64.2000 -111.5500 214° Southwest 490 564 43,000  Level Edmonton Center
04:23PM 64.0833 -111.7167 212° Southwest 490 564 43,000  Level Edmonton Center
04:24PM 63.9500 -111.8667 206° Southwest 490 564 43,000  Level Edmonton Center
04:25PM 63.8500 -112.0333 216° Southwest 490 564 43,000  Level Edmonton Center
04:26PM 63.7252 -112.1218 197° South  Level Estimated
04:27PM 63.6000 -112.3667 197° South 490 564 43,000  Level Edmonton Center
04:28PM 63.5000 -112.5333 217° Southwest 490 564 43,000  Level Edmonton Center
04:29PM 63.3667 -112.6833 207° Southwest 490 564 43,000  Level Edmonton Center
04:30PM 63.2500 -112.8500 213° Southwest 490 564 43,000  Level Edmonton Center
04:31PM 63.1500 -113.0000 214° Southwest 490 564 43,000  Level Edmonton Center
04:32PM 63.0167 -113.1667 210° Southwest 490 564 43,000  Level Edmonton Center
04:33PM 62.9000 -113.3167 210° Southwest 490 564 43,000  Level Edmonton Center
04:34PM 62.8000 -113.4667 214° Southwest 490 564 43,000  Level Edmonton Center
04:35PM 62.6667 -113.6167 207° Southwest 490 564 43,000  Level Edmonton Center
04:36PM 62.5333 -113.8000 212° Southwest 490 564 43,000  Level Edmonton Center
04:37PM 62.4167 -113.9500 211° Southwest 490 564 43,000  Level Edmonton Center
04:38PM 62.3167 -114.1000 215° Southwest 490 564 43,000  Level Edmonton Center
04:39PM 62.1833 -114.2500 208° Southwest 490 564 43,000  Level Edmonton Center
04:40PM 62.0667 -114.4000 211° Southwest 490 564 43,000  Level Edmonton Center
04:41PM 61.9333 -114.5500 208° Southwest 490 564 43,000  Level Edmonton Center
04:42PM 61.8333 -114.6833 212° Southwest 490 564 43,000  Level Edmonton Center
04:43PM 61.7000 -114.8333 208° Southwest 500 575 43,000  Level Edmonton Center
04:44PM 61.5833 -114.9667 209° Southwest 490 564 43,000  Level Edmonton Center
04:45PM 61.4667 -115.1167 212° Southwest 490 564 43,000  Level Edmonton Center
04:46PM 61.3333 -115.2500 206° Southwest 490 564 43,000  Level Edmonton Center
04:47PM 61.2167 -115.4000 212° Southwest 490 564 43,000  Level Edmonton Center
04:48PM 61.1167 -115.5333 213° Southwest 480 552 43,000  Level Edmonton Center
04:49PM 60.9833 -115.6667 206° Southwest 480 552 43,000  Level Edmonton Center
04:50PM 60.8667 -115.8000 209° Southwest 480 552 43,000  Level Edmonton Center
04:51PM 60.7500 -115.9333 209° Southwest 480 552 43,000  Level Edmonton Center
04:52PM 60.6167 -116.0667 206° Southwest 480 552 43,000  Level Edmonton Center
04:53PM 60.5000 -116.2000 209° Southwest 480 552 43,000  Level Edmonton Center
04:54PM 60.4000 -116.3333 213° Southwest 480 552 43,000  Level Edmonton Center
04:55PM 60.2667 -116.4333 200° South 480 552 43,000  Level Edmonton Center
04:56PM 60.1500 -116.5667 210° Southwest 480 552 43,000  Level Edmonton Center
04:57PM 60.0333 -116.7000 210° Southwest 480 552 43,000  Level Edmonton Center
04:58PM 59.9000 -116.8167 204° Southwest 480 552 43,000  Level Edmonton Center
04:59PM 59.7833 -116.9500 210° Southwest 490 564 43,000  Level Edmonton Center
05:00PM 59.6667 -117.0833 210° Southwest 490 564 43,000  Level Edmonton Center
05:01PM 59.5333 -117.2000 204° Southwest 490 564 43,000  Level Edmonton Center
05:02PM 59.4333 -117.3333 214° Southwest 480 552 43,000  Level Edmonton Center
05:03PM 59.3000 -117.4500 204° Southwest 480 552 43,000  Level Edmonton Center
05:04PM 59.1833 -117.5667 207° Southwest 480 552 43,000  Level Edmonton Center
05:05PM 59.0667 -117.7000 210° Southwest 480 552 43,000  Level Edmonton Center
05:06PM 58.9333 -117.8167 204° Southwest 490 564 43,000  Level Edmonton Center
05:07PM 58.8167 -117.9333 207° Southwest 480 552 43,000  Level Edmonton Center
05:08PM 58.7000 -118.0667 211° Southwest 480 552 43,000  Level Edmonton Center
05:09PM 58.5667 -118.1667 201° Southwest 480 552 43,000  Level Edmonton Center
05:10PM 58.4500 -118.3000 211° Southwest 480 552 43,000  Level Edmonton Center
05:11PM 58.3333 -118.4167 208° Southwest 490 564 43,000  Level Edmonton Center
05:12PM 58.2167 -118.5333 208° Southwest 480 552 43,000  Level Edmonton Center
05:13PM 58.0856 -118.5702 188° South  Level FlightAware Approximate
05:14PM 57.9667 -118.7667 188° South 480 552 43,000  Level Edmonton Center
05:15PM 57.8333 -118.8667 202° Southwest 480 552 43,000  Level Edmonton Center
05:16PM 57.7167 -118.9500 201° Southwest 480 552 43,000  Level Edmonton Center
05:17PM 57.6000 -119.1000 215° Southwest 480 552 43,000  Level Edmonton Center
05:18PM 57.4833 -119.2167 208° Southwest 480 552 43,000  Level Edmonton Center
05:19PM 57.3667 -119.3000 201° Southwest 480 552 43,000  Level Edmonton Center
05:20PM 57.2333 -119.4000 202° Southwest 480 552 43,000  Level Edmonton Center
05:21PM 57.1167 -119.4833 201° Southwest 480 552 43,000  Level Edmonton Center
05:22PM 56.9833 -119.5500 195° South 480 552 43,000  Level Edmonton Center
05:23PM 56.8667 -119.6333 201° Southwest 480 552 43,000  Level Edmonton Center
05:24PM 56.7167 -119.7000 194° South 480 552 43,000  Level Edmonton Center
05:25PM 56.6000 -119.7833 201° Southwest 480 552 43,000  Level Edmonton Center
05:26PM 56.4667 -119.8500 195° South 480 552 43,000  Level Edmonton Center
05:27PM 56.3500 -119.9333 202° Southwest 470 541 43,000  Level Edmonton Center
05:28PM 56.2167 -119.9667 188° South 470 541 43,000  Level Edmonton Center
05:29PM 56.0833 -120.0333 196° South 470 541 43,000  Level Edmonton Center
05:34PM 55.4000 -120.3560 196° South 481 554 43,000  Level FlightAware
05:35PM 55.2940 -120.4080 196° South 478 550 43,000  Level FlightAware
05:36PM 55.1780 -120.4650 196° South 471 542 43,000 60 Level FlightAware
05:36PM 55.0860 -120.5120 196° South 471 542 43,100  Climbing FlightAware
05:37PM 55.0060 -120.5510 196° South 470 541 43,000 -120 Descending FlightAware
05:38PM 54.9100 -120.5980 196° South 469 540 43,000  Level FlightAware
05:39PM 54.8180 -120.6430 196° South 473 544 43,000  Level FlightAware
05:39PM 54.7470 -120.6770 195° South 474 545 43,000  Level FlightAware
05:40PM 54.6540 -120.7220 196° South 474 545 43,000  Level FlightAware
05:41PM 54.5640 -120.7650 195° South 475 547 43,000  Level FlightAware
05:41PM 54.4910 -120.8030 197° South 476 548 43,000  Level FlightAware
05:42PM 54.4030 -120.8350 192° South 474 545 43,000  Level FlightAware
05:43PM 54.3060 -120.8700 192° South 473 544 43,000  Level FlightAware
05:43PM 54.2400 -120.8940 192° South 473 544 43,000  Level FlightAware
05:44PM 54.1440 -120.9280 192° South 474 545 43,000  Level FlightAware
05:45PM 54.0600 -120.9590 192° South 474 545 43,000  Level FlightAware
05:45PM 53.9730 -120.9890 191° South 471 542 43,000  Level FlightAware
05:46PM 53.8730 -121.0250 192° South 474 545 43,000  Level FlightAware
05:47PM 53.7850 -121.0560 192° South 473 544 43,000  Level FlightAware
05:47PM 53.6920 -121.0880 192° South 474 545 43,000  Level FlightAware
05:48PM 53.6230 -121.1120 192° South 475 547 43,000  Level FlightAware
05:49PM 53.5330 -121.1440 192° South 467 537 43,000  Level FlightAware
05:49PM 53.4450 -121.1740 191° South 469 540 43,000  Level FlightAware
05:50PM 53.3680 -121.2010 192° South 471 542 43,000  Level FlightAware
05:51PM 53.2740 -121.2330 192° South 473 544 43,000  Level FlightAware
05:51PM 53.1870 -121.2630 192° South 472 543 43,000  Level FlightAware
05:52PM 53.0950 -121.2940 191° South 473 544 43,000  Level FlightAware
05:53PM 53.0090 -121.3230 191° South 474 545 43,000  Level FlightAware
05:53PM 52.9180 -121.3540 192° South 473 544 43,000  Level FlightAware
05:54PM 52.8330 -121.3820 191° South 472 543 43,000  Level FlightAware
05:55PM 52.7480 -121.4110 192° South 472 543 43,000  Level FlightAware
05:55PM 52.6650 -121.4390 192° South 473 544 43,000  Level FlightAware
05:56PM 52.5770 -121.4680 191° South 473 544 43,000  Level FlightAware
05:57PM 52.4940 -121.4950 191° South 475 547 43,000  Level FlightAware
05:57PM 52.4180 -121.5200 191° South 475 547 43,000  Level FlightAware
05:58PM 52.3220 -121.5520 192° South 474 545 43,000  Level FlightAware
05:59PM 52.2360 -121.5800 191° South 476 548 43,000  Level FlightAware
05:59PM 52.1600 -121.6050 191° South 476 548 43,000  Level FlightAware
06:00PM 52.0640 -121.6360 191° South 474 545 43,000  Level FlightAware
06:01PM 51.9800 -121.6630 191° South 473 544 43,000 60 Level FlightAware
06:02PM 51.8840 -121.6940 191° South 472 543 43,100 660 Climbing FlightAware
06:02PM 51.7980 -121.7210 191° South 450 518 44,000 1,320 Climbing FlightAware
06:03PM 51.7110 -121.7490 191° South 440 506 45,000 660 Climbing FlightAware
06:04PM 51.6300 -121.7750 191° South 451 519 45,000  Level FlightAware
06:04PM 51.5560 -121.7980 191° South 459 528 45,000  Level FlightAware
06:05PM 51.4670 -121.8260 191° South 466 536 45,000  Level FlightAware
06:06PM 51.3820 -121.8530 191° South 469 540 45,000  Level FlightAware
06:06PM 51.3060 -121.8770 191° South 469 540 45,000  Level FlightAware
06:07PM 51.2110 -121.9070 191° South 468 539 45,000  Level FlightAware
06:08PM 51.1270 -121.9330 191° South 469 540 45,000  Level FlightAware
06:08PM 51.0340 -121.9620 191° South 468 539 45,000  Level FlightAware
06:09PM 50.9500 -121.9870 191° South 468 539 45,000  Level FlightAware
06:10PM 50.8600 -122.0150 191° South 461 531 45,000  Level FlightAware
06:10PM 50.7740 -122.0420 191° South 461 531 45,000  Level FlightAware
06:11PM 50.6750 -122.0720 191° South 470 541 45,000  Level FlightAware
06:12PM 50.5880 -122.0980 191° South 469 540 45,000  Level FlightAware
06:12PM 50.4990 -122.1250 191° South 468 539 45,000  Level FlightAware
06:13PM 50.4110 -122.1510 191° South 468 539 45,000  Level FlightAware
06:14PM 50.3517 -122.1690 191° South 469 540 45,000  Level FlightAware ADS-B
06:14PM 50.2706 -122.1940 191° South 468 539 45,000  Level FlightAware ADS-B
06:15PM 50.1230 -122.2380 191° South 460 529 45,000  Level FlightAware
06:16PM 50.0250 -122.2670 191° South 461 531 45,000  Level FlightAware
06:17PM 49.9380 -122.2920 190° South 471 542 45,000  Level FlightAware
06:18PM 49.8540 -122.3170 191° South 462 532 45,000  Level FlightAware
06:18PM 49.7690 -122.3420 191° South 459 528 45,000  Level FlightAware
06:19PM 49.7248 -122.3550 191° South 467 537 45,000  Level FlightAware ADS-B
06:19PM 49.6601 -122.3740 191° South 466 536 45,000  Level FlightAware ADS-B
06:20PM 49.6010 -122.3910 191° South 459 528 45,000  Level FlightAware
06:20PM 49.5360 -122.4100 191° South 459 528 45,000  Level FlightAware
06:21PM 49.4510 -122.4350 191° South 461 531 45,000  Level FlightAware
06:21PM 49.3511 -122.4630 190° South 471 542 45,000  Level FlightAware ADS-B
06:22PM 49.2440 -122.4940 191° South 472 543 45,000  Level FlightAware ADS-B
06:23PM 49.1792 -122.5130 191° South 472 543 45,000  Level FlightAware ADS-B
06:23PM 49.1133 -122.5320 191° South 472 543 45,000  Level FlightAware ADS-B
06:24PM 49.0471 -122.5500 190° South 470 541 45,000  Level FlightAware ADS-B
06:24PM 48.9788 -122.5700 191° South 470 541 45,000  Level FlightAware ADS-B
06:25PM 48.9160 -122.5840 188° South 472 543 45,000  Level FlightAware
06:26PM 48.8270 -122.5970 185° South 471 542 45,000  Level FlightAware
06:26PM 48.7520 -122.6090 186° South 471 542 45,000  Level FlightAware
06:27PM 48.6550 -122.6230 185° South 471 542 45,000  Level FlightAware
06:28PM 48.5690 -122.6360 186° South 469 540 45,000  Level FlightAware
06:28PM 48.4940 -122.6470 186° South 470 541 45,000  Level FlightAware
06:29PM 48.4316 -122.6560 185° South 467 537 45,000  Level FlightAware ADS-B
06:29PM 48.3364 -122.6700 186° South 466 536 45,000  Level FlightAware ADS-B
06:30PM 48.2720 -122.6790 185° South 468 539 45,000  Level FlightAware ADS-B
06:30PM 48.2065 -122.6890 186° South 469 540 45,000  Level FlightAware ADS-B
06:31PM 48.1403 -122.6980 185° South 472 543 45,000  Level FlightAware ADS-B
06:31PM 48.0744 -122.7080 186° South 471 542 45,000  Level FlightAware ADS-B
06:32PM 48.0093 -122.7170 185° South 466 536 45,000  Level FlightAware ADS-B
06:32PM 47.9442 -122.7260 185° South 466 536 45,000  Level FlightAware ADS-B
06:33PM 47.8790 -122.7360 186° South 468 539 45,000  Level FlightAware ADS-B
06:33PM 47.8146 -122.7450 185° South 466 536 45,000  Level FlightAware ADS-B
06:34PM 47.7497 -122.7540 185° South 468 539 45,000  Level FlightAware ADS-B
06:34PM 47.6834 -122.7640 186° South 469 540 45,000  Level FlightAware ADS-B
06:35PM 47.6184 -122.7730 185° South 467 537 45,000  Level FlightAware ADS-B
06:35PM 47.5533 -122.7820 185° South 465 535 45,000  Level FlightAware ADS-B
06:36PM 47.4882 -122.7910 185° South 466 536 45,000  Level FlightAware ADS-B
06:36PM 47.4226 -122.8010 186° South 466 536 45,000  Level FlightAware ADS-B
06:37PM 47.3576 -122.8100 185° South 465 535 45,000  Level FlightAware ADS-B
06:37PM 47.2934 -122.8190 185° South 465 535 45,000  Level FlightAware ADS-B
06:38PM 47.2292 -122.8280 185° South 466 536 45,000  Level FlightAware ADS-B
06:38PM 47.1637 -122.8370 185° South 465 535 45,000  Level FlightAware ADS-B
06:39PM 47.0996 -122.8460 185° South 466 536 45,000  Level FlightAware ADS-B
06:39PM 47.0343 -122.8550 185° South 468 539 45,000  Level FlightAware ADS-B
06:40PM 46.9655 -122.8640 185° South 467 537 45,000  Level FlightAware ADS-B
06:41PM 46.8979 -122.8730 185° South 464 534 45,000  Level FlightAware ADS-B
06:41PM 46.8338 -122.8820 185° South 464 534 45,000  Level FlightAware ADS-B
06:42PM 46.7689 -122.8910 185° South 465 535 45,000  Level FlightAware ADS-B
06:42PM 46.7034 -122.9000 185° South 467 537 45,000  Level FlightAware ADS-B
06:43PM 46.6315 -122.9100 185° South 469 540 45,000  Level FlightAware ADS-B
06:43PM 46.5668 -122.9190 185° South 470 541 45,000  Level FlightAware ADS-B
06:44PM 46.4994 -122.9280 185° South 469 540 45,000  Level FlightAware ADS-B
06:44PM 46.4351 -122.9370 186° South 468 539 45,000  Level FlightAware ADS-B
06:45PM 46.3685 -122.9460 185° South 466 536 45,000  Level FlightAware ADS-B
06:45PM 46.3039 -122.9540 185° South 465 535 45,000  Level FlightAware ADS-B
06:46PM 46.2377 -122.9630 185° South 469 540 45,000  Level FlightAware ADS-B
06:46PM 46.1665 -122.9730 186° South 470 541 45,000  Level FlightAware ADS-B
06:47PM 46.1012 -122.9810 185° South 471 542 45,000  Level FlightAware ADS-B
06:47PM 46.0332 -122.9910 186° South 471 542 45,000  Level FlightAware ADS-B
06:48PM 45.9659 -122.9990 185° South 473 544 45,000  Level FlightAware ADS-B
06:48PM 45.9005 -123.0080 185° South 475 547 45,000  Level FlightAware ADS-B
06:49PM 45.8339 -123.0170 185° South 478 550 45,000  Level FlightAware ADS-B
06:49PM 45.7679 -123.0260 185° South 477 549 45,000  Level FlightAware ADS-B
06:50PM 45.7018 -123.0340 185° South 475 547 45,000  Level FlightAware ADS-B
06:50PM 45.6355 -123.0430 185° South 474 545 45,000  Level FlightAware ADS-B
06:51PM 45.5700 -123.0520 185° South 475 547 45,000  Level FlightAware ADS-B
06:51PM 45.5023 -123.0610 185° South 475 547 45,000  Level FlightAware ADS-B
06:52PM 45.4359 -123.0690 185° South 475 547 45,000  Level FlightAware ADS-B
06:52PM 45.3704 -123.0780 186° South 474 545 45,000  Level FlightAware ADS-B
06:53PM 45.3010 -123.0870 185° South 469 540 45,000  Level FlightAware ADS-B
06:53PM 45.2323 -123.0960 185° South 465 535 45,000  Level FlightAware ADS-B
06:54PM 45.1534 -123.1060 185° South 461 531 45,000  Level FlightAware ADS-B
06:55PM 45.0838 -123.1150 185° South 459 528 45,000  Level FlightAware ADS-B
06:55PM 44.9659 -123.1300 185° South 459 528 45,000  Level FlightAware ADS-B
06:56PM 44.8670 -123.1430 185° South 458 527 45,000  Level FlightAware
06:57PM 44.7738 -123.1550 185° South 457 526 45,000  Level FlightAware ADS-B
06:58PM 44.7028 -123.1640 185° South 457 526 45,000  Level FlightAware ADS-B
06:58PM 44.6360 -123.1720 185° South 459 528 45,000  Level FlightAware
06:58PM 44.6048 -123.1760 185° South 460 529 45,000  Level FlightAware ADS-B
06:59PM 44.4590 -123.1950 185° South 459 528 45,000  Level FlightAware
07:00PM 44.3980 -123.2020 185° South 458 527 45,000  Level FlightAware
07:01PM 44.3050 -123.2140 185° South 460 529 45,000  Level FlightAware
07:01PM 44.2200 -123.2250 185° South 461 531 45,000  Level FlightAware
07:02PM 44.1270 -123.2360 185° South 462 532 45,000  Level FlightAware
07:03PM 44.0460 -123.2460 185° South 459 528 45,000  Level FlightAware
07:03PM 43.9480 -123.2580 185° South 460 529 45,000  Level FlightAware
07:04PM 43.8660 -123.2690 186° South 459 528 45,000  Level FlightAware
07:05PM 43.7830 -123.2790 185° South 463 533 45,000  Level FlightAware
07:05PM 43.6950 -123.2900 185° South 465 535 45,000  Level FlightAware
07:06PM 43.6130 -123.3000 185° South 462 532 45,000  Level FlightAware
07:07PM 43.5320 -123.3100 185° South 460 529 45,000  Level FlightAware
07:08PM 43.4340 -123.3210 185° South 463 533 45,000  Level FlightAware
07:08PM 43.3470 -123.3160 178° South 462 532 45,000  Level FlightAware
07:09PM 43.2570 -123.3070 176° South 460 529 45,000  Level FlightAware
07:10PM 43.1690 -123.2990 176° South 463 533 45,000  Level FlightAware
07:10PM 43.0960 -123.2930 177° South 464 534 45,000  Level FlightAware
07:11PM 43.0050 -123.2850 176° South 467 537 45,000  Level FlightAware
07:12PM 42.8770 -123.2730 176° South 459 528 45,000  Level FlightAware
07:13PM 42.7840 -123.2650 176° South 460 529 45,000  Level FlightAware
07:13PM 42.6910 -123.2560 176° South 461 531 45,000  Level FlightAware
07:14PM 42.6060 -123.2480 176° South 466 536 45,000  Level FlightAware
07:15PM 42.5190 -123.2410 177° South 469 540 45,000  Level FlightAware
07:16PM 42.4090 -123.2310 176° South 468 539 45,000  Level FlightAware
07:16PM 42.3230 -123.2230 176° South 467 537 45,000  Level FlightAware
07:17PM 42.2450 -123.2160 176° South 470 541 45,000  Level FlightAware
07:18PM 42.1390 -123.2070 176° South 471 542 45,000  Level FlightAware
07:18PM 42.0520 -123.1990 176° South 469 540 45,000  Level FlightAware
07:19PM 41.9600 -123.1910 176° South 466 536 45,000  Level FlightAware
07:20PM 41.8850 -123.1840 176° South 466 536 45,000  Level FlightAware
07:20PM 41.7990 -123.1770 177° South 465 535 45,000  Level FlightAware
07:21PM 41.6910 -123.1670 176° South 468 539 45,000  Level FlightAware
07:22PM 41.5940 -123.1530 174° South 466 536 45,000  Level FlightAware
07:22PM 41.5070 -123.1410 174° South 467 537 45,000  Level FlightAware
07:23PM 41.4260 -123.1310 175° South 467 537 45,000  Level FlightAware
07:24PM 41.3350 -123.1180 174° South 467 537 45,000  Level FlightAware
07:24PM 41.2500 -123.1070 174° South 467 537 45,000  Level FlightAware
07:25PM 41.1620 -123.0950 174° South 470 541 45,000  Level FlightAware
07:26PM 41.0780 -123.0830 174° South 468 539 45,000  Level FlightAware
07:26PM 41.0000 -123.0730 174° South 468 539 45,000  Level FlightAware
07:27PM 40.9040 -123.0600 174° South 468 539 45,000  Level FlightAware
07:28PM 40.8190 -123.0490 174° South 470 541 45,000  Level FlightAware
07:29PM 40.7210 -123.0350 174° South 469 540 45,000  Level FlightAware
07:29PM 40.6350 -123.0240 174° South 468 539 45,000  Level FlightAware
07:30PM 40.5480 -123.0120 174° South 467 537 45,000  Level FlightAware
07:31PM 40.4610 -123.0010 175° South 467 537 45,000  Level FlightAware
07:31PM 40.3850 -122.9910 174° South 467 537 45,000  Level FlightAware
07:32PM 40.2890 -122.9780 174° South 470 541 45,000  Level FlightAware
07:33PM 40.1920 -122.9650 174° South 472 543 45,000  Level FlightAware
07:33PM 40.1270 -122.9570 175° South 470 541 45,000  Level FlightAware
07:34PM 40.0290 -122.9440 174° South 471 542 45,000  Level FlightAware
07:35PM 39.9410 -122.9320 174° South 471 542 45,000  Level FlightAware
07:35PM 39.8440 -122.9200 175° South 471 542 45,000  Level FlightAware
07:36PM 39.7570 -122.9080 174° South 471 542 45,000  Level FlightAware
07:37PM 39.6590 -122.8960 175° South 471 542 45,000  Level FlightAware
07:37PM 39.5760 -122.8850 174° South 472 543 45,000  Level FlightAware
07:38PM 39.4940 -122.8740 174° South 465 535 45,000  Level FlightAware
07:39PM 39.4100 -122.8640 175° South 465 535 45,000  Level FlightAware
07:39PM 39.3100 -122.8510 174° South 467 537 45,000  Level FlightAware
07:40PM 39.2360 -122.8410 174° South 466 536 45,000 -540 Level FlightAware
07:41PM 39.1670 -122.8320 174° South 465 535 44,400 -2,220 Descending FlightAware
07:41PM 39.0480 -122.8170 174° South 478 550 41,900 -2,880 Descending FlightAware
07:42PM 38.9750 -122.8080 175° South 474 545 40,400 -2,760 Descending FlightAware
07:43PM 38.8660 -122.7940 174° South 466 536 38,100 -2,820 Descending FlightAware
07:43PM 38.7800 -122.7830 174° South 467 537 36,300 -2,820 Descending FlightAware
07:44PM 38.6930 -122.7720 174° South 475 547 34,400 -2,820 Descending FlightAware
07:45PM 38.6020 -122.7610 175° South 469 540 32,500 -2,760 Descending FlightAware
07:45PM 38.5230 -122.7510 174° South 476 548 30,800 -2,820 Descending FlightAware
07:46PM 38.4270 -122.7390 174° South 470 541 28,800 -2,760 Descending FlightAware
07:47PM 38.3420 -122.7280 174° South 460 529 27,000 -2,700 Descending FlightAware
07:47PM 38.2660 -122.7190 175° South 455 524 25,400 -2,640 Descending FlightAware
07:48PM 38.1770 -122.7080 174° South 436 502 23,500 -2,580 Descending FlightAware
07:49PM 38.0970 -122.6980 174° South 437 503 21,800 -2,580 Descending FlightAware
07:50PM 38.0090 -122.6870 174° South 427 491 19,900 -2,520 Descending FlightAware
07:50PM 37.9310 -122.6770 174° South 413 475 18,300 -2,400 Descending FlightAware
07:50PM 37.9020 -122.6660 163° South 410 472 17,700 -2,400 Descending FlightAware
07:51PM 37.8700 -122.6410 148° Southeast 413 475 16,900 -2,340 Descending FlightAware ADS-B
07:52PM 37.7971 -122.5630 140° Southeast 412 474 15,000 -2,340 Descending FlightAware ADS-B
07:52PM 37.7399 -122.5020 140° Southeast 392 451 13,400 -2,160 Descending FlightAware ADS-B
07:53PM 37.6884 -122.4470 140° Southeast 394 453 12,200 -1,080 Descending FlightAware ADS-B
07:53PM 37.6479 -122.4040 140° Southeast 347 399 12,200  Level FlightAware ADS-B
07:54PM 37.6144 -122.3690 140° Southeast 313 360 12,200 -600 Level FlightAware ADS-B
07:54PM 37.5762 -122.3410 150° Southeast 307 353 11,600 -1,560 Descending FlightAware ADS-B
07:55PM 37.5379 -122.3170 154° Southeast 306 352 10,600 -1,860 Descending FlightAware ADS-B
07:55PM 37.5117 -122.3000 153° Southeast 303 349 10,000 -1,980 Descending FlightAware ADS-B
07:56PM 37.4905 -122.2870 154° Southeast 306 352 9,400 -2,280 Descending FlightAware ADS-B
07:56PM 37.4705 -122.2740 153° Southeast 308 354 8,800 -2,160 Descending FlightAware ADS-B
07:56PM 37.4513 -122.2620 154° Southeast 311 358 8,300 -2,160 Descending FlightAware ADS-B
07:56PM 37.4316 -122.2490 152° Southeast 311 358 7,700 -2,100 Descending FlightAware ADS-B
07:57PM 37.4176 -122.2400 153° Southeast 310 357 7,400 -1,860 Descending FlightAware ADS-B
07:57PM 37.4142 -122.2370 145° Southeast 309 356 7,300 -900 Descending FlightAware ADS-B
07:57PM 37.4108 -122.2330 137° Southeast 308 354 7,300 -780 Level FlightAware ADS-B
07:57PM 37.4070 -122.2270 129° Southeast 311 358 7,200 -600 Descending FlightAware ADS-B
07:57PM 37.4004 -122.2170 130° Southeast 311 358 7,200  Level FlightAware ADS-B
07:57PM 37.3875 -122.1940 125° Southeast 309 356 7,200  Level FlightAware ADS-B
07:57PM 37.3750 -122.1720 126° Southeast 310 357 7,200 -180 Level FlightAware ADS-B
07:58PM 37.3592 -122.1440 125° Southeast 309 356 7,100 -780 Descending FlightAware ADS-B
07:58PM 37.3470 -122.1230 126° Southeast 303 349 6,800 -1,380 Descending FlightAware ADS-B
07:58PM 37.3349 -122.1010 125° Southeast 301 346 6,400 -1,740 Descending FlightAware ADS-B
07:58PM 37.3215 -122.0780 126° Southeast 300 345 5,900 -1,740 Descending FlightAware ADS-B
07:59PM 37.3086 -122.0550 125° Southeast 298 343 5,500 -1,380 Descending FlightAware ADS-B
07:59PM 37.2969 -122.0340 125° Southeast 290 334 5,200 -600 Descending FlightAware ADS-B
07:59PM 37.2854 -122.0140 126° Southeast 271 312 5,200  Level FlightAware ADS-B
07:59PM 37.2759 -121.9970 125° Southeast 255 293 5,200  Level FlightAware ADS-B
08:00PM 37.2654 -121.9780 125° Southeast 243 280 5,200  Level FlightAware ADS-B
08:00PM 37.2548 -121.9590 125° Southeast 243 280 5,200  Level FlightAware ADS-B
08:00PM 37.2438 -121.9390 125° Southeast 243 280 5,200  Level FlightAware ADS-B
08:01PM 37.2319 -121.9180 125° Southeast 243 280 5,200 -240 Level FlightAware ADS-B
08:01PM 37.2228 -121.9010 124° Southeast 239 275 5,100 -720 Descending FlightAware ADS-B
08:01PM 37.2211 -121.8980 125° Southeast 238 274 5,000 -1,740 Descending FlightAware ADS-B
08:01PM 37.2198 -121.8940 112° Southeast 237 273 4,900 -1,500 Descending FlightAware ADS-B
08:01PM 37.2185 -121.8890 108° East 234 269 4,800 -900 Descending FlightAware ADS-B
08:01PM 37.2180 -121.8850 99° East 233 268 4,800 -1,740 Level FlightAware ADS-B
08:01PM 37.2180 -121.8790 90° East 232 267 4,600 -1,800 Descending FlightAware ADS-B
08:01PM 37.2192 -121.8720 78° East 229 264 4,500 -1,380 Descending FlightAware ADS-B
08:01PM 37.2209 -121.8670 67° East 226 260 4,400 -1,020 Descending FlightAware ADS-B
08:01PM 37.2252 -121.8580 59° Northeast 217 250 4,300 -840 Descending FlightAware ADS-B
08:02PM 37.2325 -121.8450 55° Northeast 203 234 4,100 -1,020 Descending FlightAware ADS-B
08:02PM 37.2356 -121.8390 57° Northeast 200 230 4,000 -1,380 Descending FlightAware ADS-B
08:02PM 37.2379 -121.8360 46° Northeast 197 227 3,900 -1,500 Descending FlightAware ADS-B
08:02PM 37.2409 -121.8330 39° Northeast 194 223 3,800 -1,380 Descending FlightAware ADS-B
08:02PM 37.2441 -121.8310 26° Northeast 189 217 3,700 -1,500 Descending FlightAware ADS-B
08:02PM 37.2468 -121.8300 16° North 186 214 3,600 -1,020 Descending FlightAware ADS-B
08:02PM 37.2493 -121.8290 18° North 182 209 3,600 -900 Level FlightAware ADS-B
08:02PM 37.2526 -121.8290 360° North 181 208 3,500 -1,500 Descending FlightAware ADS-B
08:02PM 37.2555 -121.8290 360° North 178 205 3,400 -1,740 Descending FlightAware ADS-B
08:02PM 37.2580 -121.8290 360° North 177 204 3,300 -1,740 Descending FlightAware ADS-B
08:02PM 37.2615 -121.8310 336° Northwest 173 199 3,200 -1,020 Descending FlightAware ADS-B
08:02PM 37.2671 -121.8330 344° North 165 190 3,100 -1,020 Descending FlightAware ADS-B
08:02PM 37.2702 -121.8350 333° Northwest 162 186 3,000 -1,500 Descending FlightAware ADS-B
08:03PM 37.2729 -121.8360 344° North 160 184 2,900 -1,380 Descending FlightAware ADS-B
08:03PM 37.2762 -121.8380 334° Northwest 158 182 2,800 -1,020 Descending FlightAware ADS-B
08:03PM 37.2805 -121.8420 323° Northwest 161 185 2,700 -900 Descending FlightAware ADS-B
08:03PM 37.2848 -121.8450 331° Northwest 161 185 2,600 -480 Descending FlightAware ADS-B
08:03PM 37.2883 -121.8490 318° Northwest 160 184 2,600 -780 Level FlightAware ADS-B
08:03PM 37.2939 -121.8550 320° Northwest 158 182 2,400 -960 Descending FlightAware ADS-B
08:03PM 37.3018 -121.8630 321° Northwest 143 165 2,200 -1,020 Descending FlightAware ADS-B
08:04PM 37.3060 -121.8680 317° Northwest 136 157 2,000 -1,020 Descending FlightAware ADS-B
08:04PM 37.3129 -121.8750 321° Northwest 129 148 1,800 -1,020 Descending FlightAware ADS-B
08:04PM 37.3200 -121.8830 318° Northwest 124 143 1,500 -1,140 Descending FlightAware ADS-B
08:04PM 37.3229 -121.8860 321° Northwest 121 139 1,400 -900 Descending FlightAware ADS-B
08:04PM 37.3284 -121.8920 319° Northwest 116 133 1,200 -960 Descending FlightAware ADS-B
08:05PM 37.3329 -121.8970 319° Northwest 112 129 1,000 -900 Descending FlightAware ADS-B
08:05PM 37.3392 -121.9040 319° Northwest 110 127 800 -360 Descending FlightAware ADS-B
08:06PM 37.3560 -121.9220 320° Northwest 111 128 600 -240 Descending FlightAware